This is the latest recevied weather packets stored in our database for station/object AA7F. If no packets are shown the sender has not sent any weather packets the latest 10 day(s).
| Time | Temp. | Humidity | Pressure | Rain* | Wind** | Luminosity | Snow |
|---|---|---|---|---|---|---|---|
| 1777802213 | 10° C | 83% | 1013.5 hPa | 0 mm | - | 0 W/m² | - |
| 1777801912 | 10° C | 83% | 1013.6 hPa | 0 mm | - | 0 W/m² | - |
| 1777801001 | 11.67° C | 77% | 1013.7 hPa | 0 mm | - | 0 W/m² | - |
| 1777800699 | 11.11° C | 78% | 1013.6 hPa | 0 mm | - | 0 W/m² | - |
| 1777800394 | 11.11° C | 79% | 1013.5 hPa | 0 mm | - | 0 W/m² | - |
| 1777800091 | 11.11° C | 79% | 1013.5 hPa | 0 mm | - | 0 W/m² | - |
| 1777799786 | 11.11° C | 79% | 1013.5 hPa | 0 mm | - | 0 W/m² | - |
| 1777799484 | 11.11° C | 79% | 1013.5 hPa | 0 mm | - | 0 W/m² | - |
| 1777799179 | 11.11° C | 79% | 1013.5 hPa | 0 mm | - | 0 W/m² | - |
| 1777798875 | 10.56° C | 80% | 1013.6 hPa | 0 mm | - | 0 W/m² | - |
| 1777798571 | 11.11° C | 78% | 1013.5 hPa | 0 mm | - | 0 W/m² | - |
| 1777798269 | 11.67° C | 76% | 1013.3 hPa | 0 mm | - | 0 W/m² | - |
| 1777797965 | 12.22° C | 73% | 1013.4 hPa | 0 mm | - | 0 W/m² | - |
| 1777797663 | 12.78° C | 73% | 1013.3 hPa | 0 mm | - | 0 W/m² | - |
| 1777797360 | 12.78° C | 71% | 1013.6 hPa | 0 mm | - | 0 W/m² | - |
| 1777797057 | 12.78° C | 72% | 1013.2 hPa | 0 mm | - | 0 W/m² | - |
| 1777796754 | 12.22° C | 73% | 1013.4 hPa | 0 mm | - | 0 W/m² | - |
| 1777796451 | 12.22° C | 74% | 1013.1 hPa | 0 mm | - | 0 W/m² | - |
| 1777796151 | 12.22° C | 74% | 1013.2 hPa | 0 mm | - | 0 W/m² | - |
| 1777795848 | 12.22° C | 74% | 1013.1 hPa | 0 mm | - | 0 W/m² | - |
| 1777795544 | 12.22° C | 73% | 1013.2 hPa | 0 mm | - | 0 W/m² | - |
| 1777795241 | 12.22° C | 71% | 1013.2 hPa | 0 mm | - | 0 W/m² | - |
| 1777794937 | 12.22° C | 73% | 1013.2 hPa | 0 mm | - | 0 W/m² | - |
| 1777794634 | 12.22° C | 71% | 1012.9 hPa | 0 mm | - | 0 W/m² | - |
| 1777794330 | 12.22° C | 71% | 1013.1 hPa | 0 mm | - | 0 W/m² | - |
* Rain latest hour (hover to see other rain measurements)
** Current wind speed in m/s (hover to see current wind gust speed)